Time;durP1;ratioP1;P1;durP2;ratioP2;P2;SDS_P1;SDS_P2;PMS_P1;PMS_P2;Temp;Humidity;BMP_temperature;BMP_pressure;BME280_temperature;BME280_humidity;BME280_pressure;Samples;Min_cycle;Max_cycle;Signal;HPM_P1;HPM_P2
2022/08/04 00:00:13;;;;;;;11.18;4.53;;;;;;;23.09;87.04;101165.19;5156344;27;20051;-68
2022/08/04 00:02:52;;;;;;;9.68;4.10;;;;;;;23.10;87.55;101164.19;5154567;27;20224;-68
2022/08/04 00:05:31;;;;;;;9.10;3.83;;;;;;;23.04;87.54;101156.88;5153494;27;20409;-68
2022/08/04 00:08:07;;;;;;;10.90;3.70;;;;;;;23.03;88.20;101165.91;5155947;27;20053;-57
2022/08/04 00:10:36;;;;;;;10.60;3.58;;;;;;;23.01;87.74;101159.06;5154447;27;20054;-68
2022/08/04 00:13:05;;;;;;;9.55;4.07;;;;;;;23.00;88.37;101160.06;5151597;27;20039;-58
2022/08/04 00:15:34;;;;;;;7.65;3.45;;;;;;;22.95;88.74;101160.59;5155684;27;20146;-68
2022/08/04 00:18:05;;;;;;;6.22;3.58;;;;;;;22.84;89.17;101155.59;5156364;27;20046;-67
2022/08/04 00:20:39;;;;;;;8.05;3.92;;;;;;;22.78;88.82;101160.66;5156271;27;20427;-58
2022/08/04 00:23:08;;;;;;;8.70;3.70;;;;;;;22.75;88.48;101149.44;5156145;27;20046;-58
2022/08/04 00:25:40;;;;;;;8.93;4.45;;;;;;;22.75;87.98;101149.44;5155997;27;20038;-69
2022/08/04 00:28:09;;;;;;;8.15;4.10;;;;;;;22.73;88.70;101149.59;5155515;27;20042;-68
2022/08/04 00:30:37;;;;;;;10.32;3.97;;;;;;;22.67;89.54;101149.47;5153394;27;20412;-58
2022/08/04 00:33:06;;;;;;;7.80;3.92;;;;;;;22.67;89.28;101142.25;5153915;27;20564;-58
2022/08/04 00:35:38;;;;;;;9.18;4.15;;;;;;;22.63;89.04;101148.94;5155542;27;20050;-58
2022/08/04 00:38:08;;;;;;;10.55;4.18;;;;;;;22.59;89.26;101151.16;5152964;27;20122;-69
2022/08/04 00:40:46;;;;;;;8.15;4.10;;;;;;;22.58;89.13;101144.13;5153013;27;20046;-58
2022/08/04 00:43:23;;;;;;;9.70;4.20;;;;;;;22.57;89.69;101131.72;5155442;27;20038;-57
2022/08/04 00:46:31;;;;;;;8.52;4.22;;;;;;;22.53;89.91;101137.59;5155677;27;20050;-57
2022/08/04 00:49:31;;;;;;;10.45;3.85;;;;;;;22.48;90.37;101137.28;5155696;27;20061;-57
2022/08/04 00:52:15;;;;;;;9.88;4.05;;;;;;;22.39;90.81;101129.25;5149401;27;20043;-67
2022/08/04 00:55:10;;;;;;;9.50;4.57;;;;;;;22.31;91.29;101123.91;5152530;27;20095;-67
2022/08/04 00:57:51;;;;;;;11.00;4.85;;;;;;;22.22;92.85;101130.25;5155371;27;20039;-68
2022/08/04 01:00:20;;;;;;;8.88;4.18;;;;;;;22.18;92.92;101126.25;5155562;27;20038;-67
2022/08/04 01:03:06;;;;;;;8.48;4.20;;;;;;;22.06;93.12;101129.28;5155754;27;20045;-68
2022/08/04 01:05:45;;;;;;;9.70;4.13;;;;;;;22.04;93.32;101133.13;5155238;27;20419;-69
2022/08/04 01:08:35;;;;;;;8.45;4.00;;;;;;;22.03;93.55;101118.06;5155363;27;20114;-67
2022/08/04 01:11:13;;;;;;;8.85;3.90;;;;;;;21.96;94.17;101120.59;5154641;27;20091;-58
2022/08/04 01:14:24;;;;;;;8.98;4.50;;;;;;;21.94;94.85;101123.44;5155078;27;20508;-68
2022/08/04 01:16:57;;;;;;;6.85;4.28;;;;;;;21.82;95.19;101122.09;5155240;27;20046;-58
2022/08/04 01:19:53;;;;;;;8.32;4.40;;;;;;;21.77;95.06;101119.94;5152887;27;20400;-61
2022/08/04 01:22:50;;;;;;;8.00;4.47;;;;;;;21.72;95.63;101116.91;5150974;27;20054;-57
2022/08/04 01:25:42;;;;;;;7.47;4.22;;;;;;;21.72;95.55;101118.72;5154913;27;20431;-57
2022/08/04 01:28:29;;;;;;;9.02;4.93;;;;;;;21.73;95.60;101113.25;5154842;27;20129;-57
2022/08/04 01:31:07;;;;;;;9.05;4.63;;;;;;;21.65;96.35;101109.72;5154794;27;20047;-58
2022/08/04 01:33:44;;;;;;;9.27;4.80;;;;;;;21.57;97.40;101107.88;5154827;27;20092;-57
2022/08/04 01:36:33;;;;;;;8.07;4.28;;;;;;;21.53;97.82;101102.00;5154858;27;20047;-58
2022/08/04 01:39:39;;;;;;;8.95;4.35;;;;;;;21.53;98.56;101102.00;5151237;27;20084;-58
2022/08/04 01:41:53;;;;;;;8.45;4.47;;;;;;;21.44;98.05;101098.44;5152273;27;20469;-57
2022/08/04 01:44:28;;;;;;;9.32;3.90;;;;;;;21.33;99.38;101104.13;5154607;27;20038;-68
2022/08/04 01:47:00;;;;;;;9.60;4.22;;;;;;;21.34;98.89;101103.13;5154334;27;20043;-57
2022/08/04 01:49:30;;;;;;;8.45;3.88;;;;;;;21.39;98.89;101098.13;5154617;27;20043;-58
2022/08/04 01:52:11;;;;;;;8.98;4.63;;;;;;;21.34;99.38;101091.59;5153106;27;20057;-58
2022/08/04 01:54:42;;;;;;;8.48;4.75;;;;;;;21.24;99.28;101103.28;5151238;27;20516;-58
2022/08/04 01:57:11;;;;;;;9.82;4.47;;;;;;;21.23;99.38;101095.44;5153092;27;20061;-57
2022/08/04 02:00:00;;;;;;;8.50;4.25;;;;;;;21.18;99.98;101095.06;5154259;27;20068;-67
2022/08/04 02:02:29;;;;;;;9.07;3.72;;;;;;;21.13;100.00;101089.38;5154374;27;20042;-57
2022/08/04 02:04:58;;;;;;;9.75;4.32;;;;;;;21.16;99.53;101089.91;5151902;27;20385;-57
2022/08/04 02:07:44;;;;;;;11.48;4.80;;;;;;;21.05;100.00;101093.72;5150381;27;20517;-68
2022/08/04 02:10:27;;;;;;;10.45;4.85;;;;;;;21.04;100.00;101092.03;5153083;27;20092;-67
2022/08/04 02:13:08;;;;;;;10.33;4.70;;;;;;;21.04;99.98;101083.19;5154081;27;20039;-57
2022/08/04 02:15:48;;;;;;;9.63;5.07;;;;;;;21.05;100.00;101083.00;5152872;27;20043;-57
2022/08/04 02:18:23;;;;;;;10.70;5.00;;;;;;;21.00;100.00;101079.16;5151104;27;20046;-67
2022/08/04 02:20:58;;;;;;;8.82;4.82;;;;;;;21.02;100.00;101072.63;5153360;27;20058;-69
2022/08/04 02:23:31;;;;;;;10.07;4.47;;;;;;;20.99;99.83;101078.31;5153878;27;20046;-68
2022/08/04 02:26:02;;;;;;;7.72;4.45;;;;;;;20.90;100.00;101069.44;5153782;27;20042;-57
2022/08/04 02:28:35;;;;;;;9.30;4.22;;;;;;;20.94;100.00;101077.94;5153775;27;20050;-68
2022/08/04 02:31:12;;;;;;;9.20;4.30;;;;;;;20.85;100.00;101070.94;5153635;27;20129;-68
2022/08/04 02:33:43;;;;;;;9.57;4.38;;;;;;;20.82;100.00;101073.91;5154087;27;20035;-58
2022/08/04 02:36:17;;;;;;;11.00;4.25;;;;;;;20.71;100.00;101070.53;5151845;27;20046;-57
2022/08/04 02:38:55;;;;;;;7.07;4.00;;;;;;;20.70;100.00;101060.03;5150502;27;20050;-57
2022/08/04 02:41:26;;;;;;;10.95;4.35;;;;;;;20.65;100.00;101060.44;5153205;27;20450;-67
2022/08/04 02:43:57;;;;;;;9.73;4.30;;;;;;;20.61;100.00;101053.75;5153776;27;20049;-57
2022/08/04 02:46:26;;;;;;;11.48;4.30;;;;;;;20.59;100.00;101061.94;5153737;27;20114;-60
2022/08/04 02:48:56;;;;;;;8.98;4.40;;;;;;;20.56;100.00;101053.41;5153236;27;20047;-58
2022/08/04 02:51:27;;;;;;;9.10;4.18;;;;;;;20.54;100.00;101052.72;5150807;27;20054;-67
2022/08/04 02:53:57;;;;;;;9.35;4.20;;;;;;;20.52;100.00;101049.38;5149927;27;20043;-68
2022/08/04 02:56:29;;;;;;;9.32;4.43;;;;;;;20.51;100.00;101047.72;5153367;27;20130;-58
2022/08/04 02:59:00;;;;;;;9.82;4.38;;;;;;;20.48;100.00;101048.00;5152541;27;20054;-68
2022/08/04 03:01:29;;;;;;;9.93;4.20;;;;;;;20.41;100.00;101040.66;5152796;27;20092;-58
2022/08/04 03:04:13;;;;;;;9.30;4.07;;;;;;;20.37;100.00;101043.78;5151129;27;20039;-58
2022/08/04 03:07:12;;;;;;;10.15;4.70;;;;;;;20.35;100.00;101040.47;5153145;27;20125;-68
2022/08/04 03:10:17;;;;;;;10.75;4.32;;;;;;;20.39;100.00;101050.66;5153226;27;20038;-67
2022/08/04 03:13:09;;;;;;;10.75;4.55;;;;;;;20.42;100.00;101044.16;5153411;27;20178;-57
2022/08/04 03:15:58;;;;;;;8.23;4.30;;;;;;;20.37;100.00;101043.78;5152991;27;20047;-67
2022/08/04 03:19:12;;;;;;;8.25;4.38;;;;;;;20.38;100.00;101040.13;5153433;27;20513;-67
2022/08/04 03:22:16;;;;;;;9.40;4.63;;;;;;;20.46;100.00;101034.81;5112954;27;20066;-57
2022/08/04 03:25:17;;;;;;;11.20;4.60;;;;;;;20.35;100.00;101038.63;5151436;27;20046;-57
2022/08/04 03:28:04;;;;;;;8.43;4.20;;;;;;;20.27;100.00;101033.22;5150380;27;20069;-57
2022/08/04 03:30:48;;;;;;;8.18;4.15;;;;;;;20.22;100.00;101036.38;5153482;27;20042;-68
2022/08/04 03:33:43;;;;;;;9.85;3.85;;;;;;;20.17;100.00;101036.03;5153452;27;20137;-68
2022/08/04 03:36:38;;;;;;;10.80;4.35;;;;;;;20.19;100.00;101033.19;5153102;27;20046;-66
2022/08/04 03:39:47;;;;;;;8.43;3.90;;;;;;;20.12;100.00;101026.81;5153326;27;20054;-57
2022/08/04 03:42:53;;;;;;;10.00;3.78;;;;;;;20.08;100.00;101029.81;5154268;27;20065;-68
2022/08/04 03:45:45;;;;;;;7.18;4.00;;;;;;;20.13;100.00;101023.16;5155154;27;20419;-57
2022/08/04 03:48:53;;;;;;;8.57;3.83;;;;;;;20.08;100.00;101027.16;5154114;27;20420;-68
2022/08/04 03:54:49;;;;;;;9.30;4.20;;;;;;;20.00;100.00;101019.09;5156680;27;20049;-67
2022/08/04 03:57:47;;;;;;;9.80;3.88;;;;;;;20.02;100.00;101019.75;5140861;27;20616;-67
2022/08/04 04:00:18;;;;;;;8.02;3.65;;;;;;;20.02;100.00;101022.41;5138850;27;20446;-67
2022/08/04 04:03:24;;;;;;;11.20;3.92;;;;;;;19.98;100.00;101012.22;5154222;27;20053;-68
2022/08/04 04:06:33;;;;;;;8.73;4.00;;;;;;;19.93;100.00;101012.69;5155031;27;20111;-59
2022/08/04 04:09:53;;;;;;;8.75;3.83;;;;;;;19.98;100.00;101010.38;5156652;27;20466;-68
2022/08/04 04:13:16;;;;;;;10.50;3.88;;;;;;;19.99;100.00;101014.75;5156753;27;20501;-57
2022/08/04 04:15:56;;;;;;;7.75;3.80;;;;;;;19.96;100.00;101009.72;5153797;27;20047;-66
2022/08/04 04:18:51;;;;;;;10.07;3.92;;;;;;;19.97;100.00;101011.38;5153057;27;20048;-57
2022/08/04 04:21:29;;;;;;;8.88;3.67;;;;;;;19.96;100.00;101011.53;5153162;27;20061;-67
2022/08/04 04:24:27;;;;;;;8.52;3.45;;;;;;;19.90;100.00;101005.00;5152953;27;20049;-57
2022/08/04 04:27:08;;;;;;;;;;;;;;;19.93;100.00;101013.53;5153143;27;20058;-67
2022/08/04 04:29:57;;;;;;;10.20;3.92;;;;;;;19.95;100.00;101009.84;5153889;27;20022;-58
2022/08/04 04:32:38;;;;;;;10.27;3.85;;;;;;;19.97;100.00;101008.72;5155552;27;20553;-57
2022/08/04 04:35:26;;;;;;;9.98;4.25;;;;;;;19.96;100.00;101008.88;5154666;27;20042;-57
2022/08/04 04:38:18;;;;;;;10.85;3.42;;;;;;;20.01;100.00;100999.38;5151818;27;20492;-67
2022/08/04 04:40:57;;;;;;;12.95;4.20;;;;;;;20.00;100.00;101004.88;5155823;27;20053;-58
2022/08/04 04:43:52;;;;;;;12.05;3.50;;;;;;;20.00;100.00;101003.06;5155914;27;20390;-67
2022/08/04 04:46:34;;;;;;;9.60;3.97;;;;;;;19.99;100.00;101008.53;5153604;27;20509;-58
2022/08/04 04:49:11;;;;;;;10.98;3.65;;;;;;;20.03;100.00;101023.28;5155927;27;20057;-56
2022/08/04 04:51:48;;;;;;;7.75;3.58;;;;;;;19.98;100.00;101023.72;5154691;27;20063;-67
2022/08/04 04:54:26;;;;;;;10.95;3.45;;;;;;;20.07;100.00;101035.31;5152401;27;20043;-66
2022/08/04 04:57:03;;;;;;;11.85;3.72;;;;;;;20.08;100.00;101029.81;5152706;27;20051;-67
2022/08/04 04:59:34;;;;;;;8.23;3.55;;;;;;;20.12;100.00;101038.31;5155734;27;20393;-66
2022/08/04 05:02:54;;;;;;;10.07;3.53;;;;;;;20.17;100.00;101045.88;5155732;27;20045;-62
2022/08/04 05:05:41;;;;;;;12.80;3.92;;;;;;;20.20;100.00;101048.22;5155300;27;20062;-64
2022/08/04 05:08:54;;;;;;;12.85;3.80;;;;;;;20.37;100.00;101050.00;5155208;27;20041;-58
2022/08/04 05:11:38;;;;;;;14.70;3.85;;;;;;;20.37;100.00;101058.00;5152745;27;20505;-63
2022/08/04 05:14:11;;;;;;;10.82;3.53;;;;;;;20.38;100.00;101059.69;5154793;27;20129;-63
2022/08/04 05:17:06;;;;;;;9.50;3.30;;;;;;;20.47;100.00;101062.41;5170080;27;20167;-57
2022/08/04 05:19:50;;;;;;;9.73;3.60;;;;;;;20.51;100.00;101074.44;5171687;27;20042;-62
2022/08/04 05:22:25;;;;;;;12.82;3.55;;;;;;;20.56;100.00;101070.28;5175908;27;20042;-63
2022/08/04 05:25:00;;;;;;;10.82;3.10;;;;;;;20.63;100.00;101078.50;5175813;27;20042;-62
2022/08/04 05:27:34;;;;;;;8.05;2.97;;;;;;;20.69;100.00;101075.19;5156645;27;20073;-57
2022/08/04 05:30:09;;;;;;;10.32;3.33;;;;;;;20.79;100.00;101067.03;5175674;27;20444;-58
2022/08/04 05:32:47;;;;;;;13.25;3.20;;;;;;;20.90;100.00;101069.44;5175585;27;20046;-63
2022/08/04 05:35:27;;;;;;;9.77;3.25;;;;;;;20.99;100.00;101067.59;5175304;27;20034;-63
2022/08/04 05:38:20;;;;;;;11.73;3.15;;;;;;;21.11;100.00;101076.16;5172137;27;20501;-64
2022/08/04 05:40:49;;;;;;;;;;;;;;;21.22;100.00;101081.19;5173527;27;20046;-58
2022/08/04 05:43:19;;;;;;;10.65;3.30;;;;;;;21.31;100.00;101082.06;5174810;27;20384;-58
2022/08/04 05:45:48;;;;;;;11.82;3.25;;;;;;;21.43;100.00;101079.88;5175493;27;20400;-64
2022/08/04 05:48:17;;;;;;;10.45;3.33;;;;;;;21.50;100.00;101075.56;5173580;27;20138;-64
2022/08/04 05:50:48;;;;;;;10.75;3.53;;;;;;;21.59;99.29;101073.75;5172330;27;20091;-58
2022/08/04 05:53:17;;;;;;;11.98;3.80;;;;;;;21.67;98.82;101068.41;5132653;27;20047;-64
2022/08/04 05:55:47;;;;;;;8.88;3.58;;;;;;;21.77;97.40;101066.41;5131019;27;20070;-59
2022/08/04 05:58:28;;;;;;;9.88;4.10;;;;;;;21.90;98.50;101065.06;5130500;27;20044;-64
2022/08/04 06:00:58;;;;;;;9.90;3.67;;;;;;;21.96;97.80;101064.34;5133426;27;20047;-56
2022/08/04 06:03:29;;;;;;;10.15;4.10;;;;;;;22.05;96.93;101055.31;5133564;27;20505;-59
2022/08/04 06:06:00;;;;;;;11.52;4.15;;;;;;;22.16;96.39;101058.66;5133080;27;20035;-64
2022/08/04 06:08:30;;;;;;;9.10;3.72;;;;;;;22.25;95.18;101060.28;5132058;27;20050;-64
2022/08/04 06:11:04;;;;;;;11.02;3.70;;;;;;;22.34;93.59;101061.97;5131220;27;20500;-58
2022/08/04 06:13:37;;;;;;;10.05;4.18;;;;;;;22.44;93.57;101057.25;5131698;27;20043;-65
2022/08/04 06:16:19;;;;;;;10.02;3.85;;;;;;;22.54;94.16;101046.31;5133378;27;20535;-65
2022/08/04 06:19:01;;;;;;;11.90;3.75;;;;;;;22.66;93.53;101053.97;5132513;27;20063;-58
2022/08/04 06:21:55;;;;;;;11.55;4.05;;;;;;;22.79;94.11;101055.06;5129755;27;20448;-57
2022/08/04 06:24:27;;;;;;;9.60;3.67;;;;;;;22.92;93.89;101057.19;5132015;27;20418;-63
2022/08/04 06:26:57;;;;;;;10.33;3.83;;;;;;;23.04;91.93;101052.28;5132863;27;20486;-57
2022/08/04 06:29:33;;;;;;;10.32;4.20;;;;;;;23.16;91.69;101055.41;5132714;27;21029;-64
2022/08/04 06:32:12;;;;;;;13.55;3.80;;;;;;;23.28;90.33;101058.50;5131607;27;20561;-64
2022/08/04 06:35:01;;;;;;;11.43;3.80;;;;;;;23.41;90.16;101055.22;5130240;27;20046;-63
2022/08/04 06:37:32;;;;;;;10.63;3.95;;;;;;;23.53;89.59;101053.81;5132260;27;20047;-64
2022/08/04 06:40:12;;;;;;;13.45;4.30;;;;;;;23.66;88.49;101047.81;5132362;28;20054;-57
2022/08/04 06:43:01;;;;;;;11.13;3.70;;;;;;;23.80;87.35;101047.03;5131105;27;20047;-64
2022/08/04 06:45:30;;;;;;;11.20;4.00;;;;;;;23.91;84.04;101044.91;5130879;27;20039;-64
2022/08/04 06:47:59;;;;;;;15.38;4.43;;;;;;;24.03;82.81;101051.50;5133066;27;20051;-57
2022/08/04 06:50:29;;;;;;;10.65;4.20;;;;;;;24.16;79.97;101056.25;5131262;27;20060;-63
2022/08/04 06:53:19;;;;;;;10.68;4.47;;;;;;;24.30;80.77;101060.78;5129195;27;20059;-64
2022/08/04 06:55:48;;;;;;;10.82;3.75;;;;;;;24.43;82.16;101057.47;5132632;27;20043;-58
2022/08/04 06:58:17;;;;;;;12.20;4.28;;;;;;;24.54;79.31;101055.31;5132806;28;20043;-58
2022/08/04 07:00:46;;;;;;;15.55;4.22;;;;;;;24.66;78.84;101056.53;5132767;27;20051;-64
2022/08/04 07:03:18;;;;;;;9.95;4.22;;;;;;;24.76;76.88;101062.44;5132922;27;20054;-64
2022/08/04 07:05:47;;;;;;;11.50;3.95;;;;;;;24.87;77.66;101054.91;5132866;27;20043;-57
2022/08/04 07:08:15;;;;;;;11.20;3.97;;;;;;;24.95;76.95;101052.94;5129650;27;20051;-63
2022/08/04 07:10:46;;;;;;;16.02;4.13;;;;;;;25.08;77.16;101049.56;5130460;28;20047;-58
2022/08/04 07:13:15;;;;;;;10.07;3.50;;;;;;;25.20;77.79;101051.75;5132370;27;20061;-58
2022/08/04 07:15:46;;;;;;;9.70;3.47;;;;;;;25.36;76.58;101056.91;5132610;27;20073;-64
2022/08/04 07:18:15;;;;;;;11.80;3.80;;;;;;;25.49;74.10;101056.19;5135547;27;20039;-58
2022/08/04 07:20:43;;;;;;;9.80;3.65;;;;;;;25.67;74.04;101066.47;5136972;27;20051;-64
2022/08/04 07:23:16;;;;;;;12.48;4.85;;;;;;;25.82;70.57;101066.38;5134870;27;20051;-64
2022/08/04 07:25:50;;;;;;;;;;;;;;;25.96;69.64;101057.38;5135874;27;20138;-58
2022/08/04 07:28:39;;;;;;;;;;;;;;;26.12;72.62;101063.53;5135775;27;20361;-63
2022/08/04 07:31:11;;;;;;;12.85;4.60;;;;;;;26.22;67.71;101066.72;5133722;27;19951;-58
2022/08/04 07:34:00;;;;;;;13.80;4.72;;;;;;;26.40;67.49;101066.19;5136637;27;20043;-57
2022/08/04 07:36:50;;;;;;;13.13;3.85;;;;;;;26.64;68.04;101066.69;5135212;27;20055;-63
2022/08/04 07:39:24;;;;;;;9.88;3.80;;;;;;;26.84;65.80;101068.69;5134204;27;20050;-58
2022/08/04 07:41:59;;;;;;;11.10;4.20;;;;;;;26.99;64.58;101063.94;5136176;27;20051;-63
2022/08/04 07:44:31;;;;;;;12.27;3.63;;;;;;;27.22;65.59;101070.84;5133443;27;20142;-58
2022/08/04 07:47:00;;;;;;;11.07;3.83;;;;;;;27.37;61.52;101065.31;5134671;27;20204;-63
2022/08/04 07:49:29;;;;;;;9.98;3.92;;;;;;;27.43;61.45;101073.41;5135883;27;20520;-63
2022/08/04 07:52:17;;;;;;;10.40;3.60;;;;;;;27.69;61.65;101060.91;5161247;27;20550;-57
2022/08/04 07:54:46;;;;;;;10.07;3.20;;;;;;;27.85;60.66;101070.47;5177160;27;20049;-63
2022/08/04 07:57:17;;;;;;;13.20;3.47;;;;;;;27.96;58.21;101066.31;5174241;27;20073;-61
2022/08/04 08:00:07;;;;;;;11.55;3.05;;;;;;;28.10;57.46;101057.19;5175985;27;20046;-63
2022/08/04 08:02:38;;;;;;;13.40;3.45;;;;;;;28.22;57.98;101054.63;5177279;27;20038;-63
2022/08/04 08:05:10;;;;;;;11.68;2.83;;;;;;;28.43;58.75;101060.84;5157912;27;20064;-62
2022/08/04 08:07:38;;;;;;;9.40;2.80;;;;;;;28.69;58.26;101059.06;5174087;27;20042;-62
2022/08/04 08:10:21;;;;;;;9.65;2.80;;;;;;;28.79;56.50;101062.16;5176241;27;20121;-58
2022/08/04 08:12:52;;;;;;;11.73;2.95;;;;;;;28.92;54.77;101064.81;5177503;27;20046;-62
2022/08/04 08:15:21;;;;;;;10.95;3.17;;;;;;;28.97;54.81;101066.84;5177093;27;20034;-63
2022/08/04 08:17:49;;;;;;;16.13;3.22;;;;;;;29.10;55.03;101066.78;5177583;27;20125;-57
2022/08/04 08:20:28;;;;;;;11.85;3.45;;;;;;;29.23;54.97;101067.72;5177338;27;20091;-61
2022/08/04 08:22:58;;;;;;;11.52;2.75;;;;;;;29.31;53.84;101062.06;5177016;27;20509;-63
2022/08/04 08:25:26;;;;;;;8.32;2.70;;;;;;;29.54;53.81;101058.78;5177093;27;20042;-57
2022/08/04 08:27:56;;;;;;;7.75;2.78;;;;;;;29.42;51.32;101049.72;5158214;27;20472;-57
2022/08/04 08:30:24;;;;;;;7.32;2.50;;;;;;;29.68;52.19;101063.03;5176823;27;20038;-58
2022/08/04 08:33:02;;;;;;;9.95;2.80;;;;;;;29.70;51.38;101051.16;5176710;27;20537;-57
2022/08/04 08:35:41;;;;;;;9.07;2.50;;;;;;;30.00;50.96;101054.00;5176938;27;20042;-57
2022/08/04 08:38:33;;;;;;;10.55;2.58;;;;;;;30.18;52.24;101048.59;5176690;27;20129;-57
2022/08/04 08:41:20;;;;;;;8.75;2.72;;;;;;;30.32;49.87;101043.00;5176558;27;20034;-57
2022/08/04 08:44:05;;;;;;;8.77;3.20;;;;;;;30.30;50.66;101056.00;5176673;27;20101;-57
2022/08/04 08:47:00;;;;;;;7.40;2.63;;;;;;;30.45;50.01;101059.16;5176172;27;20503;-61
2022/08/04 08:50:02;;;;;;;9.35;3.00;;;;;;;30.75;50.46;101058.38;5173740;27;20828;-62
2022/08/04 08:53:13;;;;;;;12.55;2.80;;;;;;;30.98;50.08;101060.34;5175878;27;20047;-60
2022/08/04 08:55:54;;;;;;;11.68;2.67;;;;;;;31.15;49.05;101065.97;5139047;27;20057;-57
2022/08/04 08:58:39;;;;;;;9.60;2.67;;;;;;;31.16;48.43;101064.91;5176442;27;20046;-62
2022/08/04 09:01:25;;;;;;;11.40;2.90;;;;;;;31.45;48.18;101054.22;5174369;27;20042;-57
2022/08/04 09:04:26;;;;;;;12.05;2.60;;;;;;;31.71;46.78;101063.00;5174530;27;20041;-57
2022/08/04 09:07:28;;;;;;;8.05;2.70;;;;;;;32.09;46.90;101055.44;5158201;27;20520;-61
2022/08/04 09:10:04;;;;;;;11.20;3.17;;;;;;;31.84;46.05;101060.06;5176364;27;20129;-61
2022/08/04 09:12:40;;;;;;;9.60;2.40;;;;;;;32.12;46.20;101063.94;5176369;27;20044;-61
2022/08/04 09:15:13;;;;;;;8.00;2.35;;;;;;;32.30;46.28;101070.31;5155100;27;20050;-61
2022/08/04 09:17:48;;;;;;;10.75;2.63;;;;;;;32.24;44.49;101071.28;5173643;27;20043;-61
2022/08/04 09:20:25;;;;;;;11.10;2.85;;;;;;;32.32;45.01;101076.34;5175907;27;20050;-61
2022/08/04 09:23:05;;;;;;;7.55;2.38;;;;;;;32.27;45.49;101071.63;5176003;27;20038;-61
2022/08/04 09:25:41;;;;;;;8.50;2.83;;;;;;;32.46;45.82;101075.00;5176026;27;20050;-57
2022/08/04 09:28:19;;;;;;;11.45;3.08;;;;;;;32.48;44.98;101080.22;5175743;27;20052;-57
2022/08/04 09:31:13;;;;;;;11.70;3.00;;;;;;;32.41;45.98;101082.25;5175388;27;20081;-62
2022/08/04 09:33:50;;;;;;;10.88;3.10;;;;;;;32.52;45.45;101082.22;5175085;27;20056;-58
2022/08/04 09:36:28;;;;;;;10.77;3.20;;;;;;;32.61;46.22;101079.94;5175651;27;20042;-61
2022/08/04 09:39:19;;;;;;;8.80;3.05;;;;;;;32.57;45.12;101088.81;5172078;27;20042;-57
2022/08/04 09:41:59;;;;;;;11.70;3.03;;;;;;;32.71;44.08;101087.53;5173980;27;20052;-62
2022/08/04 09:44:39;;;;;;;11.63;3.50;;;;;;;32.45;43.33;101081.53;5175194;27;20457;-62
2022/08/04 09:47:30;;;;;;;7.50;3.00;;;;;;;32.60;44.64;101088.34;5175169;27;20038;-59
2022/08/04 09:50:23;;;;;;;10.05;3.10;;;;;;;32.62;45.79;101089.75;5173362;27;20382;-59
2022/08/04 09:53:01;;;;;;;9.32;3.08;;;;;;;32.63;46.08;101094.13;5171196;27;20066;-61
2022/08/04 09:55:40;;;;;;;13.70;4.10;;;;;;;32.63;45.12;101099.59;5173860;27;20049;-58
2022/08/04 09:58:28;;;;;;;9.68;3.33;;;;;;;32.53;45.85;101102.09;5174926;27;20492;-61
2022/08/04 10:01:02;;;;;;;9.88;3.17;;;;;;;32.61;46.06;101103.59;5175023;27;20435;-58
2022/08/04 10:03:34;;;;;;;10.05;3.22;;;;;;;32.71;46.66;101103.00;5175149;27;20404;-58
2022/08/04 10:06:27;;;;;;;9.02;3.22;;;;;;;32.82;46.49;101105.69;5175216;27;20053;-58
2022/08/04 10:09:07;;;;;;;9.77;3.33;;;;;;;32.89;44.80;101100.13;5173876;27;20044;-62
2022/08/04 10:11:54;;;;;;;9.60;3.42;;;;;;;32.80;44.86;101104.28;5172261;27;20510;-58
2022/08/04 10:14:40;;;;;;;9.27;2.90;;;;;;;32.77;44.68;101102.06;5174896;27;20094;-62
2022/08/04 10:17:37;;;;;;;9.60;3.38;;;;;;;32.67;44.93;101108.09;5174443;27;20432;-58
2022/08/04 10:20:19;;;;;;;12.45;3.63;;;;;;;32.56;44.80;101117.09;5174652;27;20086;-58
2022/08/04 10:23:15;;;;;;;8.45;2.80;;;;;;;32.33;45.68;101107.94;5175113;27;20049;-61
2022/08/04 10:25:55;;;;;;;10.05;2.75;;;;;;;32.26;44.60;101120.81;5173753;27;20102;-60
2022/08/04 10:28:41;;;;;;;10.02;3.47;;;;;;;31.85;45.49;101126.97;5171890;27;20058;-58
2022/08/04 10:31:13;;;;;;;10.65;3.00;;;;;;;31.57;45.69;101126.78;5173957;27;20500;-62
2022/08/04 10:33:44;;;;;;;7.78;2.30;;;;;;;31.50;47.21;101125.00;5172492;27;20042;-58
2022/08/04 10:36:17;;;;;;;10.88;2.38;;;;;;;31.56;47.13;101128.66;5173670;27;20046;-62
2022/08/04 10:38:56;;;;;;;13.48;2.42;;;;;;;31.47;46.07;101136.31;5175095;27;20389;-58
2022/08/04 10:41:31;;;;;;;7.88;2.33;;;;;;;31.37;46.88;101149.63;5174709;27;20053;-62
2022/08/04 10:44:13;;;;;;;9.38;2.38;;;;;;;31.18;46.36;101155.13;5173112;27;20616;-58
2022/08/04 10:46:47;;;;;;;9.07;2.20;;;;;;;30.96;47.03;101162.09;5172449;27;20075;-57
2022/08/04 10:49:22;;;;;;;11.52;2.15;;;;;;;30.95;47.21;101168.56;5173216;27;20054;-63
2022/08/04 10:51:54;;;;;;;7.18;2.00;;;;;;;30.56;47.87;101165.28;5177111;27;20513;-63
2022/08/04 10:54:37;;;;;;;7.75;2.10;;;;;;;30.71;47.85;101178.47;5160271;27;20061;-58
2022/08/04 10:57:11;;;;;;;7.10;2.00;;;;;;;30.26;48.97;101187.66;5178681;27;20034;-63
2022/08/04 10:59:51;;;;;;;9.13;2.00;;;;;;;30.20;51.46;101192.09;5160358;27;20050;-63
2022/08/04 11:02:36;;;;;;;6.53;2.08;;;;;;;29.88;54.82;101197.56;5178106;27;20053;-58
2022/08/04 11:05:16;;;;;;;8.23;2.28;;;;;;;29.52;54.23;101209.88;5176345;27;20057;-58
2022/08/04 11:07:49;;;;;;;8.75;2.92;;;;;;;29.22;56.47;101239.34;5177178;27;20057;-58
2022/08/04 11:10:22;;;;;;;7.95;2.17;;;;;;;28.98;57.43;101272.31;5178090;27;20117;-58
2022/08/04 11:12:57;;;;;;;10.60;2.28;;;;;;;28.72;62.77;101294.88;5178776;27;20046;-58
2022/08/04 11:15:30;;;;;;;10.52;2.17;;;;;;;28.81;64.96;101300.91;5178381;27;20034;-57
2022/08/04 11:18:04;;;;;;;11.48;2.40;;;;;;;28.44;72.74;101274.28;5178537;27;20129;-56
2022/08/04 11:20:49;;;;;;;10.55;2.80;;;;;;;28.11;75.07;101261.53;5175694;27;20053;-66
2022/08/04 11:23:24;;;;;;;9.93;2.72;;;;;;;27.75;80.02;101276.22;5175659;27;20073;-55
2022/08/04 11:26:00;;;;;;;8.68;2.65;;;;;;;27.43;82.78;101267.81;5178847;27;20393;-66
2022/08/04 11:28:39;;;;;;;12.45;3.25;;;;;;;27.19;84.11;101260.19;5178307;27;20512;-66
2022/08/04 11:31:12;;;;;;;8.18;3.08;;;;;;;26.90;87.58;101245.91;5177946;27;20047;-65
2022/08/04 11:33:46;;;;;;;11.85;3.20;;;;;;;26.87;86.74;101236.34;5176131;27;20045;-64
2022/08/04 11:36:22;;;;;;;10.20;3.00;;;;;;;26.94;86.74;101225.59;5176218;27;20076;-56
2022/08/04 11:39:03;;;;;;;11.88;3.08;;;;;;;27.07;89.02;101209.47;5156898;27;20531;-56
2022/08/04 11:41:46;;;;;;;10.50;3.60;;;;;;;26.98;87.43;101206.13;5174748;27;20523;-61
2022/08/04 11:44:24;;;;;;;8.52;2.75;;;;;;;26.64;90.38;101196.13;5177938;27;20049;-57
2022/08/04 11:46:56;;;;;;;7.97;3.00;;;;;;;26.58;93.40;101195.06;5159262;27;20068;-60
2022/08/04 11:49:32;;;;;;;10.35;3.45;;;;;;;26.72;96.40;101205.97;5177560;27;20062;-62
2022/08/04 11:52:21;;;;;;;10.25;3.10;;;;;;;26.77;94.51;101208.91;5173689;27;20054;-57
2022/08/04 11:54:51;;;;;;;7.90;3.25;;;;;;;26.62;94.31;101226.00;5175359;27;20446;-57
2022/08/04 11:57:24;;;;;;;13.05;3.25;;;;;;;26.43;94.24;101243.69;5177656;27;20070;-57
2022/08/04 12:00:08;;;;;;;10.07;2.95;;;;;;;26.31;96.36;101239.88;5177715;27;20079;-63
2022/08/04 12:03:14;;;;;;;12.07;3.60;;;;;;;26.29;94.68;101234.69;5176927;27;20042;-63
2022/08/04 12:05:52;;;;;;;12.80;3.30;;;;;;;26.25;93.28;101238.78;5177927;27;20102;-57
2022/08/04 12:08:33;;;;;;;9.05;2.88;;;;;;;26.24;90.89;101226.34;5177517;27;20042;-57
2022/08/04 12:11:13;;;;;;;9.90;3.03;;;;;;;26.23;94.36;101222.00;5177663;27;20050;-63
2022/08/04 12:13:49;;;;;;;9.27;3.85;;;;;;;26.23;94.42;101221.16;5177170;27;20046;-63
2022/08/04 12:16:22;;;;;;;9.85;3.25;;;;;;;26.15;93.78;101220.28;5177437;27;20047;-63
2022/08/04 12:18:59;;;;;;;7.55;3.00;;;;;;;26.10;92.92;101208.41;5174910;27;20053;-58
2022/08/04 12:21:35;;;;;;;14.55;3.40;;;;;;;26.03;93.95;101212.88;5173935;27;20102;-62